Time;durP1;ratioP1;P1;durP2;ratioP2;P2;SDS_P1;SDS_P2;PMS_P1;PMS_P2;Temp;Humidity;BMP_temperature;BMP_pressure;BME280_temperature;BME280_humidity;BME280_pressure;Samples;Min_cycle;Max_cycle;Signal;HPM_P1;HPM_P2
2022/05/20 00:01:21;;;;;;;15.30;8.25;;;17.30;1.00;;;;;;10394047;28;20197;-80
2022/05/20 00:06:43;;;;;;;12.20;7.93;;;17.20;99.90;;;;;;10380454;28;20255;-80
2022/05/20 00:12:05;;;;;;;14.68;8.45;;;17.20;99.90;;;;;;10380280;28;20235;-80
2022/05/20 00:17:26;;;;;;;12.38;7.80;;;17.20;1.00;;;;;;10380547;28;20204;-80
2022/05/20 00:22:49;;;;;;;16.33;6.95;;;17.20;1.00;;;;;;10393891;28;20265;-81
2022/05/20 00:28:10;;;;;;;14.40;7.40;;;17.10;99.90;;;;;;10379916;28;20495;-81
2022/05/20 00:33:33;;;;;;;12.23;6.70;;;17.10;99.90;;;;;;10357200;28;20304;-81
2022/05/20 00:38:54;;;;;;;16.45;7.55;;;17.10;99.90;;;;;;10366596;28;20220;-80
2022/05/20 00:44:15;;;;;;;11.23;6.82;;;17.10;1.00;;;;;;10387148;28;20205;-80
2022/05/20 00:49:37;;;;;;;12.90;6.57;;;17.20;9.40;;;;;;10400554;28;20185;-80
2022/05/20 00:55:04;;;;;;;13.55;6.85;;;17.10;99.90;;;;;;10400667;28;20228;-81
2022/05/20 01:00:28;;;;;;;9.63;6.35;;;17.10;1.00;;;;;;10372550;28;20213;-80
2022/05/20 01:05:51;;;;;;;11.38;6.20;;;17.20;1.00;;;;;;10372366;28;20201;-80
2022/05/20 01:11:13;;;;;;;8.40;5.88;;;17.20;94.90;;;;;;10386263;28;20194;-80
2022/05/20 01:16:35;;;;;;;11.50;6.18;;;17.20;99.90;;;;;;10385533;28;20272;-80
2022/05/20 01:21:56;;;;;;;10.07;6.78;;;17.20;99.90;;;;;;10399650;28;20208;-81
2022/05/20 01:27:17;;;;;;;9.50;6.55;;;17.20;1.00;;;;;;10399108;28;20231;-80
2022/05/20 01:32:39;;;;;;;11.70;6.97;;;17.30;1.00;;;;;;10384646;28;20241;-80
2022/05/20 01:38:00;;;;;;;8.27;6.30;;;17.30;99.90;;;;;;10398884;28;20276;-80
2022/05/20 01:44:00;;;;;;;11.43;5.95;;;17.30;99.90;;;;;;10384714;28;20442;-81
2022/05/20 01:49:55;;;;;;;10.52;6.57;;;17.40;1.00;;;;;;10398196;28;20193;-81
2022/05/20 01:55:40;;;;;;;11.93;6.20;;;17.40;99.90;;;;;;10399300;28;20224;-80
2022/05/20 02:01:08;;;;;;;13.27;5.40;;;17.40;99.90;;;;;;10370151;28;20228;-79
2022/05/20 02:06:41;;;;;;;7.60;4.97;;;17.40;1.00;;;;;;10370676;28;20205;-81
2022/05/20 02:12:03;;;;;;;8.13;5.32;;;17.50;1.00;;;;;;10397933;28;20228;-83
2022/05/20 02:17:48;;;;;;;14.07;6.70;;;17.50;1.00;;;;;;10383638;28;20527;-84
2022/05/20 02:23:19;;;;;;;8.30;6.03;;;17.50;99.90;;;;;;10373444;28;20197;-83
2022/05/20 02:28:44;;;;;;;16.55;6.65;;;17.50;1.00;;;;;;10339968;28;20538;-83
2022/05/20 02:34:05;;;;;;;8.30;5.75;;;17.40;1.00;;;;;;10383122;28;20237;-82
2022/05/20 02:39:27;;;;;;;10.30;5.88;;;17.50;1.00;;;;;;10397858;28;20495;-83
2022/05/20 02:44:49;;;;;;;7.32;5.28;;;17.60;1.00;;;;;;10382499;28;20520;-83
2022/05/20 02:50:12;;;;;;;8.93;5.45;;;17.60;99.90;;;;;;10397387;28;20264;-82
2022/05/20 02:55:33;;;;;;;5.63;4.28;;;17.70;1.00;;;;;;10382114;28;20242;-79
2022/05/20 03:06:34;;;;;;;6.18;4.28;;;17.70;99.90;;;;;;10395793;28;20194;-79
2022/05/20 03:11:55;;;;;;;7.50;4.90;;;17.80;1.00;;;;;;10381633;28;20228;-82
2022/05/20 03:17:17;;;;;;;4.13;3.72;;;17.80;1.00;;;;;;10395686;28;20220;-84
2022/05/20 03:22:38;;;;;;;4.68;3.80;;;17.80;99.90;;;;;;10395894;28;20212;-84
2022/05/20 03:27:59;;;;;;;7.22;4.65;;;17.80;99.90;;;;;;10395077;28;20217;-81
2022/05/20 03:33:20;;;;;;;4.57;3.92;;;17.90;1.00;;;;;;10381031;28;20479;-84
2022/05/20 03:38:42;;;;;;;7.03;4.13;;;17.90;1.00;;;;;;10381659;28;20197;-80
2022/05/20 03:44:04;;;;;;;5.15;3.78;;;17.90;1.00;;;;;;10394908;28;20276;-81
2022/05/20 03:49:28;;;;;;;4.50;3.95;;;17.90;1.00;;;;;;10394934;28;20506;-80
2022/05/20 03:54:50;;;;;;;5.43;4.00;;;17.90;1.00;;;;;;10367156;28;20248;-79
2022/05/20 04:00:11;;;;;;;4.85;3.90;;;17.90;1.00;;;;;;10380431;28;20463;-81
2022/05/20 04:05:33;;;;;;;4.55;4.03;;;17.90;99.90;;;;;;10371254;28;20284;-81
2022/05/20 04:10:54;;;;;;;6.72;4.30;;;17.90;1.00;;;;;;10388699;28;20193;-85
2022/05/20 04:16:16;;;;;;;4.45;3.85;;;17.90;1.00;;;;;;10402281;28;20232;-80
2022/05/20 04:21:38;;;;;;;6.93;3.72;;;17.90;33.90;;;;;;10364109;28;20194;-85
2022/05/20 04:27:00;;;;;;;9.75;4.45;;;17.90;99.90;;;;;;10353522;28;20225;-82
2022/05/20 04:32:21;;;;;;;6.60;4.03;;;18.00;1.00;;;;;;10374080;28;20581;-83
2022/05/20 04:37:42;;;;;;;10.18;3.92;;;18.10;1.00;;;;;;10387224;28;20247;-79
2022/05/20 04:48:44;;;;;;;7.95;4.22;;;18.30;1.00;;;;;;10400801;28;20580;-83
2022/05/20 04:59:48;;;;;;;7.40;3.60;;;18.40;1.00;;;;;;10380949;28;20243;-86
2022/05/20 05:05:11;;;;;;;13.30;3.38;;;18.60;1.00;;;;;;10386601;28;20203;-87
2022/05/20 05:10:33;;;;;;;7.82;3.90;;;18.60;20.70;;;;;;10386801;28;20197;-84
2022/05/20 05:15:54;;;;;;;5.85;3.58;;;18.60;25.10;;;;;;10386457;28;20221;-85
2022/05/20 05:21:16;;;;;;;10.38;3.40;;;18.70;32.90;;;;;;10400369;28;20189;-85
2022/05/20 05:26:40;;;;;;;7.15;4.03;;;18.80;28.20;;;;;;10385995;28;20196;-85
2022/05/20 05:32:02;;;;;;;3.63;2.85;;;18.90;41.90;;;;;;10371755;28;20212;-80
2022/05/20 05:37:24;;;;;;;4.63;3.22;;;18.90;32.00;;;;;;10385093;28;20204;-83
2022/05/20 05:42:46;;;;;;;8.93;4.00;;;19.00;48.00;;;;;;10384844;28;20193;-80
2022/05/20 05:48:10;;;;;;;10.48;3.92;;;19.20;50.10;;;;;;10398255;28;20488;-80
2022/05/20 05:53:31;;;;;;;6.80;4.13;;;19.30;49.00;;;;;;10398837;28;20291;-81
2022/05/20 05:58:52;;;;;;;8.40;4.82;;;19.40;34.10;;;;;;10397638;28;20221;-81
2022/05/20 06:04:14;;;;;;;7.38;5.65;;;19.30;24.90;;;;;;10397459;28;20215;-80
2022/05/20 06:09:35;;;;;;;12.20;6.65;;;19.30;34.60;;;;;;10397810;28;20268;-79
2022/05/20 06:14:57;;;;;;;10.30;6.15;;;19.40;29.90;;;;;;10383536;28;20255;-79
2022/05/20 06:20:23;;;;;;;8.27;7.15;;;19.50;29.50;;;;;;10397419;28;20235;-80
2022/05/20 06:25:45;;;;;;;9.07;6.78;;;19.70;27.50;;;;;;10369437;28;20247;-81
2022/05/20 06:31:21;;;;;;;9.20;6.65;;;19.80;21.80;;;;;;10341740;28;20205;-81
2022/05/20 06:42:22;;;;;;;12.70;10.23;;;20.50;1.00;;;;;;10397584;28;20201;-81
2022/05/20 06:47:47;;;;;;;17.05;13.50;;;20.30;1.00;;;;;;10369179;28;20257;-83
2022/05/20 06:53:09;;;;;;;17.48;14.90;;;20.00;9.30;;;;;;10396601;28;20217;-80
2022/05/20 06:58:31;;;;;;;20.73;15.38;;;19.70;41.00;;;;;;10396588;28;20197;-79
2022/05/20 07:03:53;;;;;;;30.25;17.40;;;19.70;48.30;;;;;;10397418;28;20197;-81
2022/05/20 07:09:15;;;;;;;22.35;17.13;;;19.60;61.70;;;;;;10352415;28;20440;-86
2022/05/20 07:14:37;;;;;;;24.00;18.10;;;19.60;72.40;;;;;;10399402;28;20227;-79
2022/05/20 07:19:58;;;;;;;17.90;14.82;;;19.60;70.50;;;;;;10390077;28;20491;-78
2022/05/20 07:25:19;;;;;;;20.95;16.95;;;19.60;67.60;;;;;;10390395;28;20189;-80
2022/05/20 07:30:41;;;;;;;19.55;13.98;;;19.50;78.80;;;;;;10392412;28;20192;-80
2022/05/20 07:36:02;;;;;;;22.55;14.75;;;19.40;93.00;;;;;;10359911;28;20295;-80
2022/05/20 07:41:23;;;;;;;19.13;13.05;;;19.30;97.30;;;;;;10391272;28;20553;-80
2022/05/20 07:46:45;;;;;;;16.35;13.38;;;19.30;99.90;;;;;;10367291;28;20365;-85
2022/05/20 07:52:09;;;;;;;20.98;15.55;;;19.30;99.10;;;;;;10373927;28;20201;-81
2022/05/20 07:57:31;;;;;;;25.27;14.32;;;19.40;92.10;;;;;;10388184;28;20201;-79
2022/05/20 08:02:56;;;;;;;25.55;13.63;;;19.60;90.50;;;;;;10402470;28;20202;-79
2022/05/20 08:08:17;;;;;;;22.73;16.13;;;19.60;79.60;;;;;;10402785;28;20280;-79
2022/05/20 08:13:38;;;;;;;28.25;15.07;;;20.10;43.20;;;;;;10398394;28;20235;-81
2022/05/20 08:19:00;;;;;;;21.20;14.15;;;20.70;3.60;;;;;;10361104;28;20208;-80
2022/05/20 08:24:21;;;;;;;19.35;12.80;;;21.60;1.00;;;;;;10388412;28;20427;-81
2022/05/20 08:29:43;;;;;;;38.95;14.43;;;21.50;1.00;;;;;;10400552;28;20189;-79
2022/05/20 08:35:05;;;;;;;15.10;10.73;;;21.50;1.00;;;;;;10372816;28;20256;-79
2022/05/20 08:40:29;;;;;;;16.27;11.45;;;21.60;1.00;;;;;;10388009;28;20201;-78
2022/05/20 08:45:50;;;;;;;13.40;9.85;;;21.60;1.00;;;;;;10386544;28;20276;-81
2022/05/20 08:51:12;;;;;;;10.07;8.52;;;21.50;1.00;;;;;;10370974;28;20396;-77
2022/05/20 08:56:37;;;;;;;16.40;12.57;;;21.40;1.00;;;;;;10377718;28;20237;-79
2022/05/20 09:02:00;;;;;;;12.07;7.95;;;22.20;1.00;;;;;;10395254;28;20255;-80
2022/05/20 09:07:23;;;;;;;15.73;8.95;;;22.50;1.00;;;;;;10395202;28;20491;-78
2022/05/20 09:12:46;;;;;;;11.93;8.23;;;22.50;1.00;;;;;;10394997;28;20217;-78
2022/05/20 09:18:32;;;;;;;7.97;6.95;;;22.00;1.00;;;;;;10393841;28;20239;-81
2022/05/20 09:23:58;;;;;;;11.43;7.47;;;22.00;1.00;;;;;;10365359;28;20240;-83
2022/05/20 09:29:31;;;;;;;8.60;7.30;;;22.70;1.00;;;;;;10367682;28;20382;-79
2022/05/20 09:35:04;;;;;;;13.52;6.72;;;23.40;1.00;;;;;;10394405;28;20233;-78
2022/05/20 09:40:34;;;;;;;13.18;9.65;;;23.10;99.90;;;;;;10393274;28;20213;-77
2022/05/20 09:46:33;;;;;;;9.77;5.95;;;22.70;1.00;;;;;;10392497;28;20232;-78
2022/05/20 09:51:59;;;;;;;10.18;7.93;;;22.50;99.90;;;;;;10392240;28;20220;-78
2022/05/20 09:57:27;;;;;;;19.23;7.05;;;23.10;99.90;;;;;;10374297;28;20205;-83
2022/05/20 10:03:13;;;;;;;14.60;6.72;;;24.10;1.00;;;;;;10391845;28;20197;-77
2022/05/20 10:08:59;;;;;;;19.98;8.60;;;24.90;99.90;;;;;;10351428;28;20367;-77
2022/05/20 10:14:27;;;;;;;13.02;8.07;;;24.00;1.00;;;;;;10389169;28;20245;-82
2022/05/20 10:19:52;;;;;;;13.90;6.72;;;23.50;1.00;;;;;;10364983;28;20288;-80
2022/05/20 10:25:32;;;;;;;14.98;7.38;;;23.00;1.00;;;;;;10391745;28;20284;-80
2022/05/20 10:36:54;;;;;;;22.23;8.70;;;22.00;99.90;;;;;;10376567;28;20236;-80
2022/05/20 10:42:37;;;;;;;17.55;9.13;;;22.70;99.90;;;;;;10377425;28;20243;-80
2022/05/20 10:54:10;;;;;;;15.02;6.55;;;22.40;99.90;;;;;;10387926;28;20229;-85
2022/05/20 10:59:40;;;;;;;11.68;8.80;;;22.50;99.90;;;;;;10340113;28;20244;-82
2022/05/20 11:05:19;;;;;;;24.33;12.57;;;22.20;99.90;;;;;;10352118;28;20213;-81
2022/05/20 11:10:43;;;;;;;13.65;10.48;;;21.60;1.00;;;;;;10375382;28;20285;-83
2022/05/20 11:16:17;;;;;;;21.02;11.15;;;21.20;1.00;;;;;;10390420;28;20233;-79
2022/05/20 11:22:20;;;;;;;18.88;11.27;;;20.70;1.00;;;;;;10391786;28;20201;-78
2022/05/20 11:28:09;;;;;;;17.83;7.95;;;20.80;1.00;;;;;;10323814;28;20210;-79
2022/05/20 11:33:58;;;;;;;9.15;6.22;;;20.60;1.00;;;;;;10313281;28;20246;-84
2022/05/20 11:39:19;;;;;;;15.18;5.45;;;20.60;1.00;;;;;;10275979;28;20600;-80
2022/05/20 11:44:52;;;;;;;12.52;3.85;;;21.60;1.00;;;;;;10305039;28;20202;-78
2022/05/20 11:50:31;;;;;;;8.68;4.40;;;22.40;1.00;;;;;;10289311;28;20222;-78
2022/05/20 11:56:00;;;;;;;82.20;7.10;;;23.00;99.90;;;;;;10304578;28;20230;-79
2022/05/20 12:01:22;;;;;;;8.00;2.85;;;23.10;1.00;;;;;;10281096;28;20289;-78
2022/05/20 12:06:57;;;;;;;5.50;2.92;;;22.50;22.90;;;;;;10348873;28;20220;-78
2022/05/20 12:12:32;;;;;;;6.25;2.65;;;22.70;9.10;;;;;;10348205;28;20504;-79
2022/05/20 12:24:15;;;;;;;5.25;3.08;;;22.60;1.00;;;;;;10334868;28;20206;-79
2022/05/20 12:29:39;;;;;;;4.93;2.53;;;22.70;99.90;;;;;;10352939;28;20225;-81
2022/05/20 12:35:12;;;;;;;8.85;2.60;;;22.50;99.90;;;;;;10381269;28;20291;-80
2022/05/20 12:40:33;;;;;;;2.95;2.25;;;22.40;1.00;;;;;;10370007;28;20202;-81
2022/05/20 12:45:56;;;;;;;47.38;4.07;;;22.50;99.90;;;;;;10381871;28;20255;-80
2022/05/20 12:51:17;;;;;;;63.60;5.03;;;23.00;1.00;;;;;;10395342;28;20191;-80
2022/05/20 12:56:39;;;;;;;3.20;2.38;;;23.20;99.90;;;;;;10396474;28;20237;-80
2022/05/20 13:02:08;;;;;;;29.02;3.45;;;23.10;1.00;;;;;;10395008;28;20507;-79
2022/05/20 13:07:32;;;;;;;5.25;2.00;;;23.30;33.60;;;;;;10394895;28;20256;-82
2022/05/20 13:12:59;;;;;;;6.22;2.15;;;23.80;1.00;;;;;;10394719;28;20228;-80
2022/05/20 13:18:26;;;;;;;11.43;2.53;;;23.50;1.00;;;;;;10395858;28;20523;-80
2022/05/20 13:23:50;;;;;;;10.23;2.35;;;23.20;1.00;;;;;;10394172;28;20223;-79
2022/05/20 13:29:20;;;;;;;6.72;2.47;;;23.00;1.00;;;;;;10393664;28;20229;-79
2022/05/20 13:34:43;;;;;;;2.45;2.25;;;22.90;1.00;;;;;;10382911;28;20351;-80
2022/05/20 13:40:34;;;;;;;21.58;3.30;;;22.90;1.00;;;;;;10394441;28;20197;-79
2022/05/20 13:51:48;;;;;;;7.50;1.95;;;23.10;99.90;;;;;;10391006;28;20205;-84
2022/05/20 13:57:18;;;;;;;11.35;2.45;;;23.30;99.90;;;;;;10376328;28;20235;-80
2022/05/20 14:02:42;;;;;;;4.28;2.25;;;23.50;75.90;;;;;;10382156;28;20254;-79
2022/05/20 14:08:04;;;;;;;3.47;2.22;;;23.60;21.00;;;;;;10374510;28;20207;-82
2022/05/20 14:13:34;;;;;;;4.20;3.03;;;23.70;74.40;;;;;;10379634;28;20220;-83
2022/05/20 14:19:01;;;;;;;5.85;2.90;;;23.70;20.20;;;;;;10389676;28;20496;-80
2022/05/20 14:35:01;;;;;;;3.50;3.05;;;23.10;1.00;;;;;;10415922;28;20252;-81
2022/05/20 14:40:28;;;;;;;6.95;3.38;;;22.80;1.00;;;;;;10391537;28;20193;-80
2022/05/20 14:46:00;;;;;;;7.07;3.70;;;22.60;99.90;;;;;;10376845;28;20479;-80
2022/05/20 14:51:26;;;;;;;9.25;3.67;;;22.40;99.90;;;;;;10390445;28;20486;-81
2022/05/20 14:56:48;;;;;;;3.92;3.22;;;22.10;1.00;;;;;;10391117;28;20221;-82
2022/05/20 15:02:09;;;;;;;7.75;3.67;;;22.00;1.00;;;;;;10396501;28;20185;-83
2022/05/20 15:07:31;;;;;;;8.27;3.38;;;21.90;99.90;;;;;;10369959;28;20251;-78
2022/05/20 15:12:52;;;;;;;8.40;3.67;;;21.80;99.90;;;;;;10396292;28;20197;-79
2022/05/20 15:18:14;;;;;;;7.95;4.20;;;21.70;1.00;;;;;;10396354;28;20197;-78
2022/05/20 15:23:55;;;;;;;4.55;3.15;;;21.60;1.00;;;;;;10396131;28;20200;-78
2022/05/20 15:29:19;;;;;;;7.57;3.05;;;21.50;1.00;;;;;;10395154;28;20204;-80
2022/05/20 15:34:52;;;;;;;4.28;2.67;;;21.30;1.00;;;;;;10395072;28;20244;-80
2022/05/20 15:40:25;;;;;;;4.75;2.92;;;21.30;1.00;;;;;;10394879;28;20201;-80
2022/05/20 15:45:46;;;;;;;3.20;2.90;;;21.20;1.00;;;;;;10355526;28;20381;-80
2022/05/20 15:51:10;;;;;;;7.22;3.60;;;21.10;99.90;;;;;;10356960;28;20193;-78
2022/05/20 15:56:31;;;;;;;12.20;3.95;;;21.00;99.90;;;;;;10395293;28;20225;-79
2022/05/20 16:01:53;;;;;;;5.57;2.85;;;20.80;99.90;;;;;;10402843;28;20268;-80
2022/05/20 16:07:19;;;;;;;5.07;3.00;;;20.50;23.40;;;;;;10403689;28;20197;-80
2022/05/20 16:12:40;;;;;;;3.97;2.63;;;20.50;1.00;;;;;;10403071;28;20197;-80
2022/05/20 16:18:02;;;;;;;3.53;2.72;;;20.20;99.90;;;;;;10402884;28;20229;-80
2022/05/20 16:23:25;;;;;;;5.35;4.05;;;20.10;1.00;;;;;;10402790;28;20224;-80
2022/05/20 16:28:48;;;;;;;4.50;3.17;;;20.00;87.90;;;;;;10402671;28;20372;-80
2022/05/20 16:34:10;;;;;;;7.40;3.30;;;19.90;1.00;;;;;;10386757;28;20241;-80
2022/05/20 16:39:31;;;;;;;3.20;2.70;;;19.80;1.00;;;;;;10401364;28;20201;-80
2022/05/20 16:44:52;;;;;;;4.65;2.75;;;19.80;1.00;;;;;;10400904;28;20201;-80
2022/05/20 16:50:16;;;;;;;15.50;7.43;;;19.70;99.90;;;;;;10401935;28;20189;-80
2022/05/20 16:55:38;;;;;;;11.43;4.43;;;19.60;99.90;;;;;;10400057;28;20221;-80
2022/05/20 17:06:20;;;;;;;7.88;3.45;;;19.40;99.90;;;;;;10382182;28;20201;-80
2022/05/20 17:11:44;;;;;;;3.33;2.65;;;19.30;99.90;;;;;;10400092;28;20315;-80
2022/05/20 17:17:05;;;;;;;6.47;3.65;;;19.10;1.00;;;;;;10384676;28;20425;-80
2022/05/20 17:28:09;;;;;;;5.90;3.38;;;18.80;1.00;;;;;;10400073;28;20201;-80
2022/05/20 17:33:30;;;;;;;4.45;3.03;;;18.80;1.00;;;;;;10399441;28;20466;-79
2022/05/20 17:38:51;;;;;;;5.00;3.28;;;18.60;1.00;;;;;;10400038;28;20193;-80
2022/05/20 17:44:13;;;;;;;3.88;2.63;;;18.50;1.00;;;;;;10399618;28;20212;-80
2022/05/20 17:49:36;;;;;;;5.30;3.65;;;18.50;1.00;;;;;;10399755;28;20197;-80
2022/05/20 17:54:57;;;;;;;7.65;3.55;;;18.40;1.00;;;;;;10394659;28;20232;-80
2022/05/20 18:00:18;;;;;;;4.05;3.30;;;18.20;1.00;;;;;;10397756;28;20197;-80
2022/05/20 18:05:39;;;;;;;6.78;3.55;;;18.20;1.00;;;;;;10384227;28;20276;-79
2022/05/20 18:11:01;;;;;;;6.32;3.67;;;18.10;1.00;;;;;;10383755;28;20193;-79
2022/05/20 18:16:22;;;;;;;5.95;3.33;;;18.00;1.00;;;;;;10398518;28;20246;-79
2022/05/20 18:21:44;;;;;;;5.07;3.40;;;17.90;1.00;;;;;;10397036;28;20197;-79
2022/05/20 18:27:08;;;;;;;7.05;4.20;;;17.80;1.00;;;;;;10395855;28;20200;-80
2022/05/20 18:32:29;;;;;;;6.13;4.45;;;17.80;1.00;;;;;;10383044;28;20237;-79
2022/05/20 18:43:31;;;;;;;6.95;5.13;;;17.70;1.00;;;;;;10397295;28;20377;-79
2022/05/20 18:48:52;;;;;;;8.02;4.82;;;17.50;1.00;;;;;;10396638;28;20205;-79
2022/05/20 18:54:14;;;;;;;10.65;4.32;;;17.30;1.00;;;;;;10397263;28;20251;-79
2022/05/20 18:59:35;;;;;;;6.95;4.75;;;17.30;1.00;;;;;;10395745;28;20215;-79
2022/05/20 19:04:56;;;;;;;7.10;4.28;;;17.20;1.00;;;;;;10397954;28;20271;-80
2022/05/20 19:10:17;;;;;;;7.47;4.80;;;17.20;1.00;;;;;;10396408;28;20195;-79
2022/05/20 19:15:39;;;;;;;9.27;6.05;;;17.20;1.00;;;;;;10356082;28;20432;-78
2022/05/20 19:21:02;;;;;;;8.88;6.25;;;17.10;1.00;;;;;;10375113;28;20196;-79
2022/05/20 19:26:24;;;;;;;10.50;6.07;;;17.00;1.00;;;;;;10395664;28;20193;-79
2022/05/20 19:31:45;;;;;;;10.75;6.38;;;17.10;1.00;;;;;;10394978;28;20196;-79
2022/05/20 19:37:07;;;;;;;11.38;6.38;;;17.10;1.00;;;;;;10394877;28;20220;-79
2022/05/20 19:42:28;;;;;;;9.80;6.15;;;17.00;1.00;;;;;;10380998;28;20203;-79
2022/05/20 19:47:50;;;;;;;6.60;4.30;;;16.80;1.00;;;;;;10395046;28;20229;-79
2022/05/20 19:53:12;;;;;;;4.93;3.25;;;16.80;1.00;;;;;;10395244;28;20204;-79
2022/05/20 20:04:13;;;;;;;5.35;3.13;;;16.60;1.00;;;;;;10387387;28;20209;-79
2022/05/20 20:09:34;;;;;;;3.97;3.50;;;16.40;1.00;;;;;;10394341;28;20204;-79
2022/05/20 20:14:55;;;;;;;4.80;3.92;;;16.30;1.00;;;;;;10395306;28;20227;-79
2022/05/20 20:20:17;;;;;;;6.55;3.80;;;16.30;1.00;;;;;;10395510;28;20265;-79
2022/05/20 20:31:36;;;;;;;15.90;7.93;;;16.20;1.00;;;;;;10305631;28;20203;-79
2022/05/20 20:36:57;;;;;;;9.82;6.05;;;16.00;1.00;;;;;;10270203;28;20252;-79
2022/05/20 20:42:19;;;;;;;6.72;4.70;;;15.90;1.00;;;;;;10251188;28;20198;-79
2022/05/20 20:48:00;;;;;;;7.30;5.25;;;15.90;1.00;;;;;;10310584;28;20194;-79
2022/05/20 20:53:22;;;;;;;9.30;5.63;;;15.80;1.00;;;;;;10276673;28;20220;-78
2022/05/20 20:58:44;;;;;;;8.13;6.00;;;15.70;1.00;;;;;;10303915;28;20229;-79
2022/05/20 21:04:06;;;;;;;8.73;6.40;;;15.50;5.80;;;;;;10362771;28;20215;-79
2022/05/20 21:09:27;;;;;;;11.30;7.47;;;15.40;18.40;;;;;;10400041;28;20200;-78
2022/05/20 21:14:51;;;;;;;16.35;8.05;;;15.50;23.40;;;;;;10388354;28;20288;-78
2022/05/20 21:20:13;;;;;;;10.43;7.13;;;15.30;25.20;;;;;;10399488;28;20192;-79
2022/05/20 21:25:35;;;;;;;10.65;7.70;;;15.30;29.00;;;;;;10400274;28;20510;-79
2022/05/20 21:30:57;;;;;;;11.75;6.82;;;15.20;28.60;;;;;;10399373;28;20227;-79
2022/05/20 21:36:21;;;;;;;9.00;6.80;;;15.10;41.00;;;;;;10400354;28;20471;-79
2022/05/20 21:41:42;;;;;;;16.88;11.18;;;15.20;45.00;;;;;;10400169;28;20189;-79
2022/05/20 21:47:06;;;;;;;19.30;10.88;;;15.20;40.60;;;;;;10400223;28;20411;-79
2022/05/20 21:52:29;;;;;;;12.27;8.45;;;15.10;42.00;;;;;;10399316;28;20194;-80
2022/05/20 21:57:51;;;;;;;9.93;7.82;;;14.90;64.20;;;;;;10398294;28;20230;-80
2022/05/20 22:09:01;;;;;;;13.45;7.90;;;14.90;70.70;;;;;;10358733;28;20189;-79
2022/05/20 22:14:22;;;;;;;12.98;7.82;;;14.90;78.80;;;;;;10394897;28;20538;-80
2022/05/20 22:19:43;;;;;;;12.27;7.88;;;15.00;70.00;;;;;;10398631;28;20192;-78
2022/05/20 22:25:08;;;;;;;16.20;10.02;;;15.00;57.40;;;;;;10357242;28;20196;-78
2022/05/20 22:30:29;;;;;;;19.35;12.43;;;14.90;64.60;;;;;;10363690;28;20262;-78
2022/05/20 22:35:51;;;;;;;19.10;11.65;;;14.80;72.30;;;;;;10397867;28;20614;-79
2022/05/20 22:41:12;;;;;;;16.63;10.18;;;14.70;76.90;;;;;;10397611;28;20193;-78
2022/05/20 22:46:34;;;;;;;13.07;9.10;;;14.80;62.50;;;;;;10396861;28;20207;-78
2022/05/20 22:51:55;;;;;;;11.82;8.10;;;14.70;74.80;;;;;;10396835;28;20546;-78
2022/05/20 22:57:17;;;;;;;18.70;6.75;;;14.60;72.70;;;;;;10396173;28;20236;-78
2022/05/20 23:02:45;;;;;;;9.70;7.20;;;14.60;77.40;;;;;;10417956;28;20210;-79
2022/05/20 23:08:07;;;;;;;12.13;8.70;;;14.60;80.70;;;;;;10400887;28;20382;-79
2022/05/20 23:13:29;;;;;;;10.27;7.90;;;14.60;88.10;;;;;;10395049;28;20245;-79
2022/05/20 23:18:51;;;;;;;10.95;7.88;;;14.40;86.10;;;;;;10395552;28;20219;-79
2022/05/20 23:24:13;;;;;;;10.93;7.30;;;14.50;92.30;;;;;;10396249;28;20769;-79
2022/05/20 23:29:34;;;;;;;9.80;7.05;;;14.50;94.40;;;;;;10396588;28;20199;-79
2022/05/20 23:34:56;;;;;;;11.00;7.80;;;14.40;95.90;;;;;;10354189;28;20236;-79
2022/05/20 23:40:18;;;;;;;12.00;8.38;;;14.40;94.30;;;;;;10357066;28;20205;-79
2022/05/20 23:45:40;;;;;;;14.15;8.07;;;14.40;99.30;;;;;;10395191;28;20192;-79
2022/05/20 23:51:02;;;;;;;14.38;9.15;;;14.40;97.00;;;;;;10394587;28;20211;-78
